Time;durP1;ratioP1;P1;durP2;ratioP2;P2;SDS_P1;SDS_P2;PMS_P1;PMS_P2;Temp;Humidity;BMP_temperature;BMP_pressure;BME280_temperature;BME280_humidity;BME280_pressure;Samples;Min_cycle;Max_cycle;Signal;HPM_P1;HPM_P2
2023/04/02 00:02:44;;;;;;;8.03;7.53;;;3.60;71.00;;;;;;6234968;28;20581;-78
2023/04/02 00:05:51;;;;;;;7.70;7.10;;;3.60;70.70;;;;;;6236772;28;20741;-81
2023/04/02 00:08:57;;;;;;;7.93;7.13;;;3.60;70.70;;;;;;6236251;28;20230;-83
2023/04/02 00:12:17;;;;;;;7.40;6.83;;;3.60;70.80;;;;;;6236429;28;20239;-81
2023/04/02 00:15:21;;;;;;;7.30;6.80;;;3.60;70.90;;;;;;6235340;28;20235;-80
2023/04/02 00:18:25;;;;;;;7.10;6.53;;;3.60;70.90;;;;;;6235945;28;20629;-79
2023/04/02 00:21:32;;;;;;;6.60;6.10;;;3.50;70.60;;;;;;6235580;28;20242;-81
2023/04/02 00:24:35;;;;;;;7.17;6.63;;;3.50;70.20;;;;;;6235962;28;20286;-79
2023/04/02 00:27:38;;;;;;;6.57;6.27;;;3.50;70.40;;;;;;6236300;28;20246;-79
2023/04/02 00:30:49;;;;;;;6.30;5.83;;;3.50;70.10;;;;;;6240714;28;20257;-77
2023/04/02 00:33:53;;;;;;;7.10;6.70;;;3.50;69.90;;;;;;6242799;28;20230;-79
2023/04/02 00:36:56;;;;;;;7.30;6.70;;;3.50;70.00;;;;;;6236090;28;20281;-79
2023/04/02 00:40:06;;;;;;;7.17;6.57;;;3.40;70.10;;;;;;6250498;28;20691;-79
2023/04/02 00:43:15;;;;;;;7.70;7.00;;;3.30;69.80;;;;;;6253461;28;20730;-80
2023/04/02 00:46:22;;;;;;;7.30;6.83;;;3.30;69.70;;;;;;6259320;28;20238;-78
2023/04/02 00:49:33;;;;;;;7.60;7.10;;;3.40;69.70;;;;;;6272963;28;20239;-76
2023/04/02 00:52:37;;;;;;;7.57;7.07;;;3.50;69.10;;;;;;6251409;28;20224;-80
2023/04/02 00:55:41;;;;;;;7.47;7.07;;;3.40;69.20;;;;;;6275510;28;20237;-81
2023/04/02 00:58:50;;;;;;;7.90;7.20;;;3.30;69.50;;;;;;6278736;28;20250;-77
2023/04/02 01:02:01;;;;;;;6.80;6.40;;;3.40;69.30;;;;;;6280688;28;20262;-82
2023/04/02 01:05:21;;;;;;;6.53;6.10;;;3.30;69.20;;;;;;6266440;28;20308;-79
2023/04/02 01:08:31;;;;;;;6.27;5.83;;;3.30;69.10;;;;;;6271322;28;20678;-80
2023/04/02 01:11:54;;;;;;;7.90;6.27;;;3.30;69.00;;;;;;6265495;28;20234;-78
2023/04/02 01:15:06;;;;;;;6.63;5.97;;;3.30;69.10;;;;;;6259776;28;20266;-79
2023/04/02 01:18:30;;;;;;;6.20;5.90;;;3.30;68.90;;;;;;6263899;28;20226;-79
2023/04/02 01:21:52;;;;;;;5.90;5.63;;;3.30;69.00;;;;;;6256755;28;20250;-81
2023/04/02 01:24:56;;;;;;;6.10;5.57;;;3.30;69.10;;;;;;6264366;28;20886;-80
2023/04/02 01:28:09;;;;;;;5.47;5.23;;;3.30;68.90;;;;;;6262941;28;20234;-79
2023/04/02 01:31:16;;;;;;;5.67;5.37;;;3.30;68.50;;;;;;6263653;28;20234;-81
2023/04/02 01:34:22;;;;;;;6.37;5.63;;;3.30;68.70;;;;;;6252205;28;20691;-79
2023/04/02 01:37:37;;;;;;;6.00;5.80;;;3.30;68.60;;;;;;6262389;28;20230;-79
2023/04/02 01:40:46;;;;;;;5.67;5.47;;;3.30;68.50;;;;;;6252852;28;20391;-78
2023/04/02 01:43:54;;;;;;;5.03;4.83;;;3.20;68.60;;;;;;6242493;28;20411;-80
2023/04/02 01:47:02;;;;;;;5.63;5.30;;;3.20;68.20;;;;;;6256921;28;20735;-80
2023/04/02 01:50:20;;;;;;;6.03;5.50;;;3.30;68.30;;;;;;6262666;28;20311;-81
2023/04/02 01:53:27;;;;;;;5.80;5.40;;;3.30;68.20;;;;;;6237230;28;20250;-81
2023/04/02 01:56:33;;;;;;;5.60;5.20;;;3.30;68.60;;;;;;6262483;28;20246;-80
2023/04/02 01:59:36;;;;;;;4.77;4.67;;;3.10;68.70;;;;;;6265524;28;20325;-79
2023/04/02 02:02:41;;;;;;;5.23;5.10;;;3.30;68.70;;;;;;6263468;28;20250;-80
2023/04/02 02:05:45;;;;;;;5.60;5.40;;;3.20;68.50;;;;;;6268639;28;20234;-79
2023/04/02 02:08:50;;;;;;;5.53;5.23;;;3.20;68.60;;;;;;6263420;28;20408;-79
2023/04/02 02:11:53;;;;;;;5.10;4.90;;;3.20;68.50;;;;;;6252253;28;20349;-79
2023/04/02 02:14:56;;;;;;;5.80;5.30;;;3.20;68.10;;;;;;6261837;28;20653;-79
2023/04/02 02:18:04;;;;;;;5.47;5.17;;;3.20;68.20;;;;;;6262643;28;20738;-79
2023/04/02 02:21:10;;;;;;;5.93;5.37;;;3.10;68.00;;;;;;6254529;28;20691;-78
2023/04/02 02:24:20;;;;;;;5.60;5.20;;;3.10;68.50;;;;;;6263649;28;20222;-80
2023/04/02 02:27:59;;;;;;;4.90;4.70;;;3.10;67.70;;;;;;6261235;28;20237;-80
2023/04/02 02:31:06;;;;;;;5.03;4.83;;;3.10;67.70;;;;;;6257018;28;20339;-78
2023/04/02 02:34:21;;;;;;;5.30;4.90;;;3.10;67.50;;;;;;6261328;28;20372;-80
2023/04/02 02:37:29;;;;;;;5.17;4.90;;;3.10;67.80;;;;;;6251197;28;20238;-78
2023/04/02 02:40:38;;;;;;;5.50;5.20;;;3.10;67.60;;;;;;6263066;28;20246;-80
2023/04/02 02:43:46;;;;;;;5.10;4.70;;;3.10;67.50;;;;;;6262165;28;20231;-79
2023/04/02 02:46:53;;;;;;;4.87;4.67;;;3.10;67.50;;;;;;6254187;28;20610;-79
2023/04/02 02:50:02;;;;;;;5.43;5.03;;;3.10;67.30;;;;;;6256721;28;20261;-79
2023/04/02 02:53:14;;;;;;;5.27;4.97;;;3.10;67.40;;;;;;6262187;28;20312;-80
2023/04/02 02:56:18;;;;;;;4.87;4.67;;;3.10;67.40;;;;;;6253935;28;20234;-78
2023/04/02 02:59:23;;;;;;;4.20;4.00;;;3.10;67.10;;;;;;6245959;28;20226;-81
2023/04/02 03:02:30;;;;;;;4.60;4.40;;;3.10;66.80;;;;;;6261458;28;20238;-79
2023/04/02 03:05:35;;;;;;;4.63;4.33;;;3.10;66.80;;;;;;6261737;28;20329;-80
2023/04/02 03:08:44;;;;;;;5.07;4.67;;;3.10;66.50;;;;;;6260490;28;20616;-81
2023/04/02 03:11:53;;;;;;;4.87;4.57;;;3.00;66.80;;;;;;6257322;28;20245;-80
2023/04/02 03:15:04;;;;;;;4.43;4.23;;;3.00;66.90;;;;;;6281730;28;20222;-79
2023/04/02 03:18:14;;;;;;;4.47;4.33;;;3.00;66.70;;;;;;6287846;28;20242;-76
2023/04/02 03:21:26;;;;;;;4.87;4.50;;;3.10;66.40;;;;;;6290394;28;20362;-77
2023/04/02 03:24:36;;;;;;;4.57;4.37;;;3.00;67.00;;;;;;6286999;28;20242;-80
2023/04/02 03:27:44;;;;;;;4.47;4.17;;;3.00;66.90;;;;;;6291523;28;20238;-75
2023/04/02 03:30:51;;;;;;;4.73;4.37;;;3.00;67.10;;;;;;6254842;28;20422;-77
2023/04/02 03:33:58;;;;;;;4.57;4.40;;;3.00;67.20;;;;;;6239444;28;20250;-81
2023/04/02 03:37:11;;;;;;;4.87;4.57;;;3.10;67.20;;;;;;6270092;28;20248;-77
2023/04/02 03:40:20;;;;;;;5.07;4.83;;;3.10;67.50;;;;;;6268860;28;20249;-80
2023/04/02 03:43:25;;;;;;;5.20;4.70;;;3.10;67.90;;;;;;6256740;28;20257;-81
2023/04/02 03:46:32;;;;;;;4.87;4.57;;;3.00;67.90;;;;;;6260686;28;20242;-81
2023/04/02 03:49:40;;;;;;;5.03;4.67;;;3.00;67.90;;;;;;6263798;28;22208;-79
2023/04/02 03:52:45;;;;;;;4.40;4.30;;;3.10;67.90;;;;;;6263242;28;20242;-78
2023/04/02 03:55:50;;;;;;;4.80;4.50;;;3.10;67.50;;;;;;6251031;28;20244;-79
2023/04/02 03:59:02;;;;;;;5.23;4.90;;;3.10;67.30;;;;;;6263899;28;20230;-79
2023/04/02 04:02:33;;;;;;;5.33;4.97;;;3.10;67.60;;;;;;6258867;28;20244;-78
2023/04/02 04:05:43;;;;;;;4.83;4.63;;;3.10;67.70;;;;;;6252298;28;20230;-81
2023/04/02 04:08:53;;;;;;;4.53;4.43;;;3.10;67.60;;;;;;6251425;28;20726;-79
2023/04/02 04:12:08;;;;;;;5.43;4.97;;;3.10;67.50;;;;;;6252775;28;20310;-78
2023/04/02 04:15:20;;;;;;;5.30;4.90;;;3.20;67.40;;;;;;6240511;28;20256;-79
2023/04/02 04:18:33;;;;;;;6.47;5.03;;;3.20;67.00;;;;;;6225509;28;20362;-77
2023/04/02 04:21:37;;;;;;;4.87;4.67;;;3.10;67.10;;;;;;6240249;28;20238;-78
2023/04/02 04:24:44;;;;;;;4.63;4.40;;;3.20;66.90;;;;;;6239002;28;20320;-77
2023/04/02 04:27:56;;;;;;;4.47;4.17;;;3.20;66.70;;;;;;6227022;28;20234;-78
2023/04/02 04:31:06;;;;;;;5.10;4.60;;;3.20;66.90;;;;;;6231498;28;20243;-76
2023/04/02 04:34:15;;;;;;;4.47;4.27;;;3.30;66.90;;;;;;6240545;28;20245;-76
2023/04/02 04:37:24;;;;;;;4.40;4.30;;;3.20;67.10;;;;;;6239890;28;20416;-76
2023/04/02 04:40:31;;;;;;;5.40;4.90;;;3.20;67.30;;;;;;6238521;28;20296;-77
2023/04/02 04:43:43;;;;;;;4.33;4.13;;;3.20;67.70;;;;;;6238465;28;20710;-77
2023/04/02 04:46:52;;;;;;;4.33;4.10;;;3.20;67.60;;;;;;6230897;28;20243;-78
2023/04/02 04:50:02;;;;;;;4.47;4.17;;;3.20;67.60;;;;;;6237281;28;20235;-77
2023/04/02 04:53:07;;;;;;;4.80;4.60;;;3.30;67.40;;;;;;6235272;28;20226;-79
2023/04/02 04:56:12;;;;;;;4.50;4.20;;;3.30;67.20;;;;;;6232088;28;20326;-75
2023/04/02 04:59:25;;;;;;;4.30;4.10;;;3.20;67.20;;;;;;6241504;28;20309;-76
2023/04/02 05:02:31;;;;;;;4.07;3.80;;;3.10;67.40;;;;;;6238571;28;20243;-75
2023/04/02 05:05:39;;;;;;;4.93;4.63;;;3.10;67.90;;;;;;6234983;28;20231;-78
2023/04/02 05:08:47;;;;;;;4.20;3.90;;;3.30;67.60;;;;;;6240287;28;20322;-78
2023/04/02 05:11:59;;;;;;;4.40;4.30;;;3.30;67.70;;;;;;6240072;28;20248;-77
2023/04/02 05:15:10;;;;;;;4.43;4.10;;;3.30;67.30;;;;;;6231600;28;20231;-78
2023/04/02 05:18:23;;;;;;;3.77;3.77;;;3.30;67.30;;;;;;6236703;28;20238;-78
2023/04/02 05:21:34;;;;;;;5.30;4.80;;;3.30;67.50;;;;;;6236288;28;20234;-78
2023/04/02 05:24:44;;;;;;;4.87;4.47;;;3.30;67.70;;;;;;6239532;28;20415;-78
2023/04/02 05:27:53;;;;;;;5.33;4.93;;;3.30;67.90;;;;;;6239241;28;20239;-78
2023/04/02 05:31:01;;;;;;;6.30;5.90;;;3.40;67.90;;;;;;6238202;28;20356;-76
2023/04/02 05:34:05;;;;;;;4.57;4.37;;;3.40;67.70;;;;;;6239785;28;20821;-78
2023/04/02 05:37:16;;;;;;;4.67;4.57;;;3.30;67.80;;;;;;6238431;28;20250;-76
2023/04/02 05:40:29;;;;;;;4.80;4.40;;;3.50;67.50;;;;;;6236762;28;20298;-78
2023/04/02 05:43:38;;;;;;;4.77;4.57;;;3.50;67.10;;;;;;6233245;28;20235;-78
2023/04/02 05:46:46;;;;;;;4.87;4.57;;;3.50;66.70;;;;;;6242950;28;20245;-78
2023/04/02 05:49:53;;;;;;;5.23;4.87;;;3.50;66.50;;;;;;6238895;28;20318;-79
2023/04/02 05:53:04;;;;;;;4.67;4.47;;;3.50;66.50;;;;;;6242332;28;20237;-79
2023/04/02 05:56:15;;;;;;;4.90;4.50;;;3.60;66.70;;;;;;6248605;28;20253;-76
2023/04/02 05:59:23;;;;;;;5.07;4.77;;;3.60;66.60;;;;;;6266549;28;20211;-79
2023/04/02 06:02:31;;;;;;;5.30;4.90;;;3.60;67.00;;;;;;6269577;28;20242;-78
2023/04/02 06:05:39;;;;;;;4.87;4.50;;;3.60;67.10;;;;;;6269003;28;20803;-76
2023/04/02 06:08:50;;;;;;;4.33;4.23;;;3.70;67.00;;;;;;6263236;28;20276;-76
2023/04/02 06:12:02;;;;;;;5.93;4.30;;;3.90;66.70;;;;;;6267932;28;20691;-78
2023/04/02 06:15:12;;;;;;;5.00;4.60;;;3.90;66.20;;;;;;6249024;28;20235;-75
2023/04/02 06:18:19;;;;;;;4.33;4.23;;;3.90;65.60;;;;;;6242885;28;20227;-77
2023/04/02 06:21:22;;;;;;;5.40;5.00;;;3.90;65.00;;;;;;6244905;28;20245;-77
2023/04/02 06:24:28;;;;;;;4.30;4.20;;;3.90;65.10;;;;;;6241613;28;20258;-77
2023/04/02 06:27:31;;;;;;;4.63;3.93;;;3.90;65.00;;;;;;6243322;28;20238;-78
2023/04/02 06:30:37;;;;;;;4.67;4.27;;;4.10;64.10;;;;;;6232442;28;20262;-78
2023/04/02 06:33:40;;;;;;;4.27;3.97;;;4.10;64.00;;;;;;6245987;28;20250;-79
2023/04/02 06:36:44;;;;;;;4.33;4.03;;;4.20;63.60;;;;;;6240863;28;20242;-79
2023/04/02 06:39:48;;;;;;;4.03;3.90;;;4.30;63.40;;;;;;6242134;28;20235;-79
2023/04/02 06:42:58;;;;;;;4.13;3.83;;;4.50;63.40;;;;;;6245016;28;20235;-77
2023/04/02 06:46:09;;;;;;;4.23;3.93;;;4.50;63.70;;;;;;6266798;28;20238;-77
2023/04/02 06:49:20;;;;;;;4.33;4.00;;;4.70;62.80;;;;;;6269308;28;20222;-79
2023/04/02 06:52:28;;;;;;;4.00;3.80;;;4.70;63.20;;;;;;6268691;28;20246;-78
2023/04/02 06:55:35;;;;;;;3.87;3.60;;;4.70;62.50;;;;;;6259858;28;20233;-78
2023/04/02 06:58:38;;;;;;;4.13;3.93;;;4.70;62.70;;;;;;6266059;28;20226;-78
2023/04/02 07:01:49;;;;;;;5.30;4.47;;;4.70;62.90;;;;;;6246593;28;20248;-77
2023/04/02 07:04:52;;;;;;;4.87;3.87;;;4.90;62.40;;;;;;6247614;28;20235;-78
2023/04/02 07:07:55;;;;;;;3.90;3.70;;;5.00;62.30;;;;;;6270302;28;20364;-78
2023/04/02 07:10:59;;;;;;;3.60;3.50;;;5.00;62.20;;;;;;6269865;28;20230;-79
2023/04/02 07:14:03;;;;;;;3.50;3.40;;;5.10;61.00;;;;;;6254058;28;20581;-76
2023/04/02 07:17:07;;;;;;;3.57;3.37;;;5.10;60.40;;;;;;6253581;28;20249;-78
2023/04/02 07:20:25;;;;;;;4.00;3.80;;;5.00;59.50;;;;;;6260506;28;20256;-76
2023/04/02 07:23:28;;;;;;;4.20;3.97;;;5.10;59.30;;;;;;6266719;28;20245;-78
2023/04/02 07:26:32;;;;;;;3.70;3.50;;;5.20;59.30;;;;;;6267669;28;20240;-77
2023/04/02 07:29:41;;;;;;;3.63;3.33;;;5.30;60.30;;;;;;6256879;28;20238;-77
2023/04/02 07:32:48;;;;;;;4.40;4.10;;;5.30;59.50;;;;;;6265669;28;20627;-78
2023/04/02 07:35:52;;;;;;;4.90;3.93;;;5.40;59.30;;;;;;6257833;28;20226;-77
2023/04/02 07:38:56;;;;;;;3.90;3.60;;;5.50;58.60;;;;;;6252822;28;20257;-78
2023/04/02 07:42:01;;;;;;;3.67;3.50;;;5.50;57.90;;;;;;6263840;28;20244;-78
2023/04/02 07:45:05;;;;;;;4.37;3.47;;;5.60;57.80;;;;;;6259324;28;20234;-79
2023/04/02 07:48:13;;;;;;;3.37;3.17;;;5.60;58.00;;;;;;6256035;28;20225;-77
2023/04/02 07:51:18;;;;;;;3.70;3.40;;;5.70;58.00;;;;;;6265207;28;20242;-78
2023/04/02 07:54:21;;;;;;;3.60;3.30;;;5.80;57.30;;;;;;6262464;28;20241;-77
2023/04/02 07:57:24;;;;;;;4.23;3.83;;;5.80;57.50;;;;;;6259505;28;20238;-76
2023/04/02 08:00:28;;;;;;;7.70;3.53;;;5.90;57.80;;;;;;6263590;28;20617;-79
2023/04/02 08:03:34;;;;;;;3.60;3.40;;;6.00;57.60;;;;;;6259140;28;20240;-79
2023/04/02 08:06:37;;;;;;;4.33;3.90;;;6.00;58.30;;;;;;6260845;28;20252;-78
2023/04/02 08:09:40;;;;;;;3.83;3.53;;;5.90;58.00;;;;;;6262192;28;20234;-77
2023/04/02 08:12:43;;;;;;;3.50;3.40;;;5.90;58.50;;;;;;6262029;28;20717;-76
2023/04/02 08:15:46;;;;;;;3.40;3.20;;;5.90;57.60;;;;;;6273536;28;20733;-78
2023/04/02 08:18:51;;;;;;;3.57;3.37;;;5.90;58.20;;;;;;6270788;28;20253;-78
2023/04/02 08:21:55;;;;;;;3.47;3.30;;;5.80;58.10;;;;;;6263578;28;20238;-79
2023/04/02 08:24:58;;;;;;;3.60;3.50;;;5.70;58.30;;;;;;6267526;28;20683;-76
2023/04/02 08:28:01;;;;;;;3.40;3.40;;;5.80;58.00;;;;;;6247903;28;20235;-77
2023/04/02 08:31:07;;;;;;;3.50;3.40;;;5.90;58.00;;;;;;6247267;28;20241;-78
2023/04/02 08:34:13;;;;;;;3.53;3.33;;;5.90;58.10;;;;;;6264270;28;20230;-77
2023/04/02 08:37:16;;;;;;;3.37;3.17;;;6.00;58.20;;;;;;6255516;28;20257;-76
2023/04/02 08:40:25;;;;;;;3.73;3.53;;;5.90;58.00;;;;;;6258402;28;20257;-78
2023/04/02 08:43:56;;;;;;;3.83;3.63;;;5.90;58.00;;;;;;6265207;28;20250;-79
2023/04/02 08:47:02;;;;;;;3.60;3.40;;;6.10;57.80;;;;;;6262937;28;20313;-76
2023/04/02 08:50:15;;;;;;;5.47;3.67;;;6.10;57.70;;;;;;6255330;28;20237;-78
2023/04/02 08:53:22;;;;;;;4.57;3.50;;;6.30;57.30;;;;;;6263479;28;20297;-77
2023/04/02 08:56:33;;;;;;;3.90;3.60;;;6.40;57.10;;;;;;6258194;28;20500;-76
2023/04/02 08:59:39;;;;;;;4.23;3.83;;;6.40;57.20;;;;;;6263442;28;20649;-76
2023/04/02 09:02:47;;;;;;;3.80;3.60;;;6.50;57.20;;;;;;6263187;28;20281;-78
2023/04/02 09:05:53;;;;;;;3.67;3.47;;;6.50;56.70;;;;;;6259340;28;20231;-75
2023/04/02 09:09:00;;;;;;;4.03;3.83;;;6.60;55.60;;;;;;6249757;28;20603;-78
2023/04/02 09:12:04;;;;;;;3.60;3.40;;;6.70;56.40;;;;;;6257307;28;20252;-78
2023/04/02 09:15:17;;;;;;;3.60;3.40;;;6.80;56.00;;;;;;6243483;28;20233;-79
2023/04/02 09:18:20;;;;;;;3.87;3.57;;;7.20;55.10;;;;;;6263716;28;20226;-78
2023/04/02 09:21:35;;;;;;;3.63;3.50;;;7.20;54.90;;;;;;6261639;28;20253;-76
2023/04/02 09:24:38;;;;;;;3.70;3.50;;;7.20;55.70;;;;;;6267777;28;20590;-75
2023/04/02 09:27:41;;;;;;;4.23;3.93;;;7.30;55.10;;;;;;6262834;28;20230;-79
2023/04/02 09:31:06;;;;;;;3.80;3.43;;;7.40;55.30;;;;;;6266608;28;20246;-80
2023/04/02 09:34:28;;;;;;;4.67;4.17;;;7.40;55.60;;;;;;6265490;28;20292;-77
2023/04/02 09:37:33;;;;;;;3.87;3.67;;;7.50;54.50;;;;;;6260630;28;20230;-78
2023/04/02 09:40:44;;;;;;;3.53;3.33;;;7.60;54.00;;;;;;6265761;28;20586;-77
2023/04/02 09:43:48;;;;;;;3.43;3.23;;;7.60;55.00;;;;;;6265304;28;20226;-77
2023/04/02 09:46:55;;;;;;;4.73;3.50;;;7.80;54.10;;;;;;6249518;28;20253;-77
2023/04/02 09:50:14;;;;;;;3.50;3.20;;;7.80;54.20;;;;;;6264148;28;20230;-78
2023/04/02 09:53:29;;;;;;;6.20;3.40;;;7.60;53.20;;;;;;6261335;28;20298;-77
2023/04/02 09:56:34;;;;;;;3.27;3.17;;;7.50;53.30;;;;;;6260533;28;20230;-77
2023/04/02 09:59:37;;;;;;;2.97;2.80;;;7.20;53.70;;;;;;6263605;28;20665;-77
2023/04/02 10:02:41;;;;;;;3.93;3.73;;;7.20;53.90;;;;;;6260149;28;20240;-75
2023/04/02 10:05:46;;;;;;;3.37;3.23;;;7.50;54.20;;;;;;6264627;28;20234;-77
2023/04/02 10:08:53;;;;;;;3.83;3.33;;;7.60;52.70;;;;;;6253890;28;20291;-76
2023/04/02 10:11:59;;;;;;;3.10;2.90;;;7.70;52.80;;;;;;6265881;28;20237;-76
2023/04/02 10:15:05;;;;;;;3.50;3.40;;;7.70;52.60;;;;;;6260004;28;20316;-76
2023/04/02 10:18:16;;;;;;;3.33;3.23;;;7.60;52.40;;;;;;6254236;28;20238;-77
2023/04/02 10:21:25;;;;;;;3.70;3.50;;;7.60;53.30;;;;;;6254079;28;20250;-77
2023/04/02 10:24:30;;;;;;;3.60;3.40;;;7.80;53.10;;;;;;6252938;28;20551;-79
2023/04/02 10:27:40;;;;;;;3.40;3.30;;;7.90;52.90;;;;;;6259474;28;20317;-80
2023/04/02 10:30:57;;;;;;;4.63;3.33;;;8.10;52.70;;;;;;6257787;28;20242;-78
2023/04/02 10:34:04;;;;;;;3.63;3.37;;;8.20;52.50;;;;;;6256053;28;20238;-79
2023/04/02 10:37:29;;;;;;;3.37;3.10;;;8.20;52.70;;;;;;6244668;28;20712;-76
2023/04/02 10:40:37;;;;;;;3.60;3.30;;;8.40;52.60;;;;;;6267206;28;20649;-76
2023/04/02 10:44:16;;;;;;;3.67;3.33;;;8.30;52.30;;;;;;6262536;28;20230;-78
2023/04/02 10:47:34;;;;;;;3.30;3.20;;;8.30;52.20;;;;;;6256507;28;20230;-77
2023/04/02 10:50:48;;;;;;;3.60;3.30;;;8.30;52.20;;;;;;6259979;28;20595;-78
2023/04/02 10:54:00;;;;;;;3.80;3.50;;;8.40;52.30;;;;;;6254897;28;20230;-76
2023/04/02 10:57:12;;;;;;;4.17;3.80;;;8.20;51.60;;;;;;6264150;28;20241;-75
2023/04/02 11:00:23;;;;;;;3.20;3.10;;;8.10;52.10;;;;;;6256729;28;20249;-76
2023/04/02 11:03:35;;;;;;;3.73;3.43;;;8.10;52.40;;;;;;6267030;28;20242;-78
2023/04/02 11:06:46;;;;;;;4.73;3.50;;;8.10;51.70;;;;;;6260039;28;20276;-77
2023/04/02 11:09:51;;;;;;;3.33;3.20;;;8.20;51.90;;;;;;6265184;28;20237;-78
2023/04/02 11:13:02;;;;;;;3.90;3.67;;;8.30;51.80;;;;;;6264125;28;20397;-76
2023/04/02 11:16:06;;;;;;;3.93;3.63;;;8.60;51.70;;;;;;6258298;28;20312;-78
2023/04/02 11:19:23;;;;;;;3.83;3.53;;;8.60;51.80;;;;;;6267355;28;20442;-78
2023/04/02 11:22:26;;;;;;;4.37;3.60;;;8.60;51.80;;;;;;6262178;28;20253;-76
2023/04/02 11:25:29;;;;;;;3.77;3.47;;;8.50;51.40;;;;;;6265797;28;20244;-77
2023/04/02 11:28:34;;;;;;;7.37;4.77;;;8.50;51.70;;;;;;6265742;28;20238;-77
2023/04/02 11:31:37;;;;;;;3.57;3.37;;;8.30;52.00;;;;;;6265568;28;20253;-79
2023/04/02 11:35:01;;;;;;;3.33;3.13;;;8.30;52.10;;;;;;6259032;28;20714;-77
2023/04/02 11:38:46;;;;;;;4.57;3.37;;;8.30;51.90;;;;;;6258658;28;20360;-77
2023/04/02 11:42:05;;;;;;;3.30;3.10;;;8.20;51.60;;;;;;6260685;28;20240;-77
2023/04/02 11:46:04;;;;;;;3.40;3.20;;;8.20;52.20;;;;;;6256488;28;20368;-76
2023/04/02 11:49:53;;;;;;;4.50;3.90;;;8.40;52.30;;;;;;6160345;28;20503;-77
2023/04/02 11:53:01;;;;;;;3.87;3.57;;;8.70;51.70;;;;;;6232503;28;20253;-78
2023/04/02 11:56:10;;;;;;;3.57;3.33;;;8.60;50.70;;;;;;6229756;28;20528;-77
2023/04/02 11:59:20;;;;;;;3.73;3.53;;;8.90;50.70;;;;;;6237919;28;20480;-79
2023/04/02 12:02:28;;;;;;;4.33;3.80;;;9.30;50.60;;;;;;6230574;28;20239;-78
2023/04/02 12:05:36;;;;;;;3.23;3.10;;;9.60;49.30;;;;;;6231605;28;20319;-77
2023/04/02 12:08:50;;;;;;;3.43;3.23;;;9.60;49.10;;;;;;6233222;28;20241;-76
2023/04/02 12:12:17;;;;;;;4.00;3.70;;;9.50;49.90;;;;;;6234636;28;20246;-78
2023/04/02 12:15:43;;;;;;;3.30;3.10;;;9.40;50.00;;;;;;6224719;28;20342;-77
2023/04/02 12:18:52;;;;;;;4.47;3.47;;;9.20;50.70;;;;;;6238339;28;20239;-77
2023/04/02 12:21:56;;;;;;;3.27;2.93;;;9.00;51.40;;;;;;6235918;28;20239;-76
2023/04/02 12:25:03;;;;;;;3.27;3.00;;;9.00;50.90;;;;;;6231126;28;20230;-78
2023/04/02 12:28:16;;;;;;;3.33;3.10;;;9.20;50.80;;;;;;6232440;28;20381;-78
2023/04/02 12:31:23;;;;;;;3.67;2.90;;;9.20;50.40;;;;;;6228168;28;20254;-78
2023/04/02 12:34:29;;;;;;;3.10;3.00;;;9.20;50.50;;;;;;6227123;28;20261;-77
2023/04/02 12:37:32;;;;;;;2.93;2.83;;;9.20;50.60;;;;;;6238412;28;20254;-76
2023/04/02 12:40:37;;;;;;;3.13;2.80;;;9.30;50.30;;;;;;6236163;28;20246;-77
2023/04/02 12:43:40;;;;;;;3.53;3.23;;;9.40;49.70;;;;;;6231306;28;20226;-76
2023/04/02 12:46:45;;;;;;;3.10;2.90;;;9.50;49.70;;;;;;6235291;28;20227;-78
2023/04/02 12:49:50;;;;;;;3.53;3.23;;;9.70;49.70;;;;;;6239812;28;20235;-76
2023/04/02 12:52:57;;;;;;;3.10;2.80;;;10.00;49.80;;;;;;6240625;28;20257;-77
2023/04/02 12:56:07;;;;;;;3.30;3.00;;;10.20;49.10;;;;;;6230603;28;20230;-79
2023/04/02 12:59:29;;;;;;;3.13;2.83;;;10.10;48.70;;;;;;6237260;28;20682;-77
2023/04/02 13:02:43;;;;;;;3.47;3.10;;;9.90;48.70;;;;;;6239992;28;20256;-76
2023/04/02 13:05:50;;;;;;;3.50;3.20;;;9.70;48.70;;;;;;6242255;28;20356;-78
2023/04/02 13:08:55;;;;;;;3.00;2.63;;;9.90;48.80;;;;;;6261705;28;20259;-77
2023/04/02 13:12:00;;;;;;;3.00;2.73;;;10.10;48.40;;;;;;6253450;28;20611;-77
2023/04/02 13:15:06;;;;;;;3.73;2.90;;;10.20;48.50;;;;;;6260869;28;20478;-76
2023/04/02 13:18:19;;;;;;;3.30;3.00;;;10.10;48.10;;;;;;6261162;28;20238;-78
2023/04/02 13:21:27;;;;;;;2.90;2.70;;;10.20;47.70;;;;;;6254404;28;20757;-76
2023/04/02 13:24:33;;;;;;;2.77;2.60;;;10.00;48.10;;;;;;6256747;28;20245;-78
2023/04/02 13:27:38;;;;;;;3.00;2.70;;;9.90;49.00;;;;;;6257080;28;20233;-77
2023/04/02 13:30:41;;;;;;;3.57;2.97;;;9.60;48.90;;;;;;6262199;28;20245;-77
2023/04/02 13:33:44;;;;;;;3.10;2.90;;;9.30;49.30;;;;;;6247473;28;20233;-78
2023/04/02 13:36:47;;;;;;;2.73;2.63;;;9.20;49.50;;;;;;6224682;28;20238;-76
2023/04/02 13:39:50;;;;;;;2.80;2.70;;;9.50;49.60;;;;;;6232849;28;20238;-76
2023/04/02 13:42:55;;;;;;;2.60;2.50;;;9.80;48.60;;;;;;6236735;28;20428;-77
2023/04/02 13:45:59;;;;;;;2.77;2.57;;;10.20;48.30;;;;;;6233306;28;20789;-78
2023/04/02 13:49:03;;;;;;;2.50;2.40;;;10.20;47.70;;;;;;6234737;28;20685;-77
2023/04/02 13:52:13;;;;;;;3.73;2.80;;;10.20;48.10;;;;;;6237500;28;20242;-77
2023/04/02 13:55:18;;;;;;;2.60;2.50;;;10.10;48.60;;;;;;6237796;28;20781;-77
2023/04/02 13:58:23;;;;;;;2.53;2.43;;;10.00;48.60;;;;;;6236093;28;20235;-78
2023/04/02 14:01:27;;;;;;;3.03;2.93;;;9.90;48.80;;;;;;6226050;28;20246;-77
2023/04/02 14:04:35;;;;;;;3.00;2.80;;;9.80;49.80;;;;;;6233962;28;20238;-77
2023/04/02 14:07:55;;;;;;;6.40;3.20;;;9.70;48.80;;;;;;6230877;28;20239;-75
2023/04/02 14:11:11;;;;;;;2.60;2.50;;;9.40;49.30;;;;;;6239916;28;20235;-77
2023/04/02 14:14:43;;;;;;;2.70;2.60;;;9.30;49.20;;;;;;6239980;28;20310;-75
2023/04/02 14:17:58;;;;;;;2.90;2.70;;;9.40;49.40;;;;;;6237263;28;20609;-75
2023/04/02 14:21:11;;;;;;;3.03;2.77;;;9.80;48.90;;;;;;6234017;28;20478;-75
2023/04/02 14:24:19;;;;;;;3.27;2.80;;;10.00;48.60;;;;;;6234217;28;20245;-79
2023/04/02 14:27:30;;;;;;;2.83;2.63;;;9.70;48.70;;;;;;6239889;28;20474;-76
2023/04/02 14:30:45;;;;;;;2.90;2.80;;;9.30;48.50;;;;;;6231956;28;20354;-77
2023/04/02 14:33:57;;;;;;;2.60;2.50;;;9.20;49.10;;;;;;6235774;28;20235;-76
2023/04/02 14:37:11;;;;;;;3.20;3.00;;;9.50;48.70;;;;;;6229418;28;20234;-77
2023/04/02 14:40:22;;;;;;;2.83;2.77;;;9.70;48.70;;;;;;6233018;28;20227;-78
2023/04/02 14:43:31;;;;;;;3.00;2.80;;;9.70;48.60;;;;;;6229561;28;20243;-77
2023/04/02 14:46:37;;;;;;;2.80;2.70;;;9.40;48.80;;;;;;6237524;28;20314;-77
2023/04/02 14:49:44;;;;;;;2.77;2.67;;;9.40;48.80;;;;;;6227672;28;20242;-79
2023/04/02 14:52:53;;;;;;;3.23;2.90;;;9.40;49.10;;;;;;6233724;28;20587;-77
2023/04/02 14:55:57;;;;;;;3.50;2.93;;;9.50;48.70;;;;;;6240117;28;20242;-78
2023/04/02 14:59:16;;;;;;;3.03;2.83;;;9.30;49.20;;;;;;6239030;28;20230;-77
2023/04/02 15:02:27;;;;;;;2.90;2.80;;;9.20;49.60;;;;;;6231482;28;20227;-77
2023/04/02 15:05:39;;;;;;;2.83;2.73;;;9.10;48.90;;;;;;6234421;28;20249;-77
2023/04/02 15:08:48;;;;;;;3.17;2.70;;;9.00;49.40;;;;;;6233639;28;20239;-78
2023/04/02 15:12:13;;;;;;;3.13;2.90;;;9.00;49.30;;;;;;6236191;28;20703;-77
2023/04/02 15:15:23;;;;;;;3.10;2.80;;;9.00;50.00;;;;;;6232292;28;20250;-77
2023/04/02 15:18:42;;;;;;;3.37;3.17;;;9.00;49.80;;;;;;6233915;28;20644;-79
2023/04/02 15:22:05;;;;;;;2.80;2.60;;;9.00;49.70;;;;;;6231889;28;20761;-78
2023/04/02 15:25:23;;;;;;;3.73;2.80;;;9.00;49.10;;;;;;6230029;28;20898;-78
2023/04/02 15:28:32;;;;;;;4.23;3.03;;;8.70;49.80;;;;;;6238777;28;20239;-77
2023/04/02 15:31:36;;;;;;;2.80;2.70;;;8.30;50.90;;;;;;6232260;28;20234;-75
2023/04/02 15:34:50;;;;;;;3.37;3.07;;;8.40;50.70;;;;;;6218998;28;20235;-77
2023/04/02 15:37:59;;;;;;;3.07;2.87;;;8.50;50.50;;;;;;6233127;28;20368;-77
2023/04/02 15:41:08;;;;;;;3.27;3.17;;;8.50;50.10;;;;;;6235274;28;20321;-76
2023/04/02 15:44:15;;;;;;;3.30;3.00;;;8.20;50.30;;;;;;6239373;28;20234;-77
2023/04/02 15:47:29;;;;;;;2.60;2.60;;;8.10;50.60;;;;;;6238059;28;20234;-77
2023/04/02 15:50:46;;;;;;;3.00;2.80;;;8.00;50.60;;;;;;6229404;28;20621;-76
2023/04/02 15:53:59;;;;;;;3.17;2.97;;;8.00;50.60;;;;;;6239799;28;20245;-77
2023/04/02 15:57:15;;;;;;;3.63;2.90;;;8.00;50.00;;;;;;6262710;28;20421;-77
2023/04/02 16:00:26;;;;;;;3.07;2.87;;;7.80;50.40;;;;;;6266388;28;20250;-79
2023/04/02 16:04:11;;;;;;;2.93;2.83;;;7.60;50.50;;;;;;6262402;28;20242;-76
2023/04/02 16:07:27;;;;;;;2.57;2.47;;;7.40;51.20;;;;;;6234025;28;20235;-78
2023/04/02 16:10:34;;;;;;;3.13;2.87;;;7.50;51.20;;;;;;6261888;28;20242;-77
2023/04/02 16:13:45;;;;;;;3.70;3.40;;;7.50;51.50;;;;;;6243749;28;20684;-76
2023/04/02 16:16:51;;;;;;;3.10;3.00;;;7.50;51.40;;;;;;6242450;28;20258;-77
2023/04/02 16:20:00;;;;;;;3.57;3.20;;;7.50;50.80;;;;;;6236264;28;20233;-78
2023/04/02 16:23:12;;;;;;;3.27;3.07;;;7.30;50.90;;;;;;6240316;28;20241;-79
2023/04/02 16:26:30;;;;;;;3.20;3.10;;;7.20;51.40;;;;;;6233263;28;20686;-78
2023/04/02 16:29:58;;;;;;;4.63;3.60;;;7.00;51.70;;;;;;6232940;28;20298;-77
2023/04/02 16:33:17;;;;;;;3.70;3.60;;;6.90;52.10;;;;;;6234362;28;20238;-78
2023/04/02 16:36:34;;;;;;;3.20;3.07;;;6.80;52.50;;;;;;6240985;28;20242;-77
2023/04/02 16:39:43;;;;;;;3.37;3.17;;;6.70;52.50;;;;;;6233665;28;20235;-78
2023/04/02 16:42:53;;;;;;;4.20;3.07;;;6.60;52.20;;;;;;6255415;28;20237;-77